»·PEaware :: UAL710 KSBA-KLAS

UAL710 :: KSBA-KLAS

FLIGHT INFORMATION

Flight Status: Arrived
Operator:
United Airlines
More flights by this operator :: More flights under this callsign
Pilot: Ryan C. (15122)
Aircraft: AIRBUS A320
(A320)
More flights by this aircraft type
Origin: KSBA Santa Barbara Mun
United States
Destination: KLAS Harry Reid Intl
United States
More flights between these airports :: More routes between these airports
Route: MISHN3 NNAVY MISEN RNDRZ2
File this flight plan on PilotEdge
Remarks:
Altitude:
(Current/Filed)
31,000ft
Speed:
(Current/Filed)
455kts
Departed: 02-Oct-22 09:35 AM
Arrived: 02-Oct-22 10:27 AM
Distance/Time
Traveled:
251nm/0:52
Distance/Time
To Go:
Arrived

Flight Plot

Page will automatically refresh every two minutes.

Flight plan parsing failed; only flown route is shown


Map Options




Map Legend


Flown Route
Filed Route
Departure Airport
Arrival Airport
Navaid (VOR, NDB)
Fix

Horizontal Profiles

Position Reports

Time Latitude Longitude Heading Altitude Ground
Speed
02-Oct-22 09:09 34.425308 -119.837169 143 9ft 0kts
02-Oct-22 09:10 34.425308 -119.837169 143 9ft 0kts
02-Oct-22 09:11 34.425308 -119.837169 143 9ft 0kts
02-Oct-22 09:12 34.425308 -119.837169 143 9ft 0kts
02-Oct-22 09:13 34.425308 -119.837169 143 9ft 0kts
02-Oct-22 09:14 34.425308 -119.837169 143 9ft 0kts
02-Oct-22 09:15 34.425308 -119.837169 143 9ft 0kts
02-Oct-22 09:16 34.425308 -119.837169 143 9ft 0kts
02-Oct-22 09:17 34.425308 -119.837169 143 9ft 0kts
02-Oct-22 09:18 34.425308 -119.837169 143 9ft 0kts
02-Oct-22 09:19 34.425308 -119.837169 143 9ft 0kts
02-Oct-22 09:20 34.425308 -119.837169 143 9ft 0kts
02-Oct-22 09:21 34.425308 -119.837169 143 9ft 0kts
02-Oct-22 09:22 34.425317 -119.837177 143 9ft 0kts
02-Oct-22 09:23 34.425357 -119.837847 21 19ft 2kts
02-Oct-22 09:24 34.425117 -119.837844 342 18ft 0kts
02-Oct-22 09:25 34.425117 -119.837844 342 18ft 0kts
02-Oct-22 09:26 34.425117 -119.837844 342 18ft 0kts
02-Oct-22 09:27 34.425117 -119.837844 342 18ft 0kts
02-Oct-22 09:28 34.425117 -119.837844 342 18ft 0kts
02-Oct-22 09:29 34.426716 -119.837841 79 18ft 8kts
02-Oct-22 09:30 34.426830 -119.834828 64 18ft 7kts
02-Oct-22 09:31 34.427039 -119.834635 3 18ft 0kts
02-Oct-22 09:32 34.427039 -119.834635 3 18ft 0kts
02-Oct-22 09:33 34.427921 -119.835179 268 18ft 0kts
02-Oct-22 09:34 34.427449 -119.855695 266 132ft 158kts
02-Oct-22 09:35 34.423374 -119.909970 262 2472ft 176kts
02-Oct-22 09:36 34.415103 -119.981868 262 2996ft 265kts
02-Oct-22 09:37 34.384377 -120.056681 191 3879ft 268kts
02-Oct-22 09:38 34.314985 -120.028535 152 7246ft 277kts
02-Oct-22 09:39 34.290555 -119.947391 76 10335ft 300kts
02-Oct-22 09:40 34.313942 -119.838001 76 11766ft 372kts
02-Oct-22 09:41 34.340640 -119.710136 76 14110ft 401kts
02-Oct-22 09:42 34.368298 -119.576371 75 16414ft 417kts
02-Oct-22 09:43 34.396833 -119.437690 75 18507ft 431kts
02-Oct-22 09:44 34.426003 -119.295165 75 20327ft 442kts
02-Oct-22 09:45 34.455815 -119.148614 75 22145ft 453kts
02-Oct-22 09:46 34.486034 -118.998480 75 23786ft 464kts
02-Oct-22 09:47 34.516936 -118.844981 75 25140ft 473kts
02-Oct-22 09:48 34.548076 -118.688714 75 26660ft 475kts
02-Oct-22 09:49 34.578717 -118.533546 75 28454ft 472kts
02-Oct-22 09:50 34.609047 -118.379199 76 30124ft 469kts
02-Oct-22 09:51 34.639001 -118.225234 75 31104ft 467kts
02-Oct-22 09:52 34.668709 -118.071784 75 31101ft 467kts
02-Oct-22 09:53 34.698304 -117.918009 75 31082ft 467kts
02-Oct-22 09:54 34.727583 -117.764082 76 31047ft 467kts
02-Oct-22 09:55 34.756782 -117.610269 76 31061ft 468kts
02-Oct-22 09:56 34.785785 -117.456035 76 31080ft 468kts
02-Oct-22 09:57 34.814569 -117.301520 76 31064ft 469kts
02-Oct-22 09:58 34.843230 -117.146711 76 31008ft 469kts
02-Oct-22 09:59 34.871649 -116.992152 76 30005ft 468kts
02-Oct-22 10:00 34.899802 -116.836948 76 28192ft 470kts
02-Oct-22 10:01 34.942744 -116.687243 54 26472ft 469kts
02-Oct-22 10:02 35.016423 -116.556940 55 24837ft 462kts
02-Oct-22 10:03 35.088371 -116.428801 55 23997ft 457kts
02-Oct-22 10:04 35.172938 -116.312750 46 23995ft 457kts
02-Oct-22 10:05 35.256076 -116.204080 47 23980ft 430kts
02-Oct-22 10:06 35.335170 -116.094483 47 23984ft 431kts
02-Oct-22 10:07 35.414939 -115.984790 47 23335ft 430kts
02-Oct-22 10:08 35.493814 -115.875970 47 20819ft 423kts
02-Oct-22 10:09 35.570448 -115.769816 47 19234ft 392kts
02-Oct-22 10:10 35.637539 -115.678117 46 18027ft 339kts
02-Oct-22 10:11 35.699198 -115.595180 46 16703ft 316kts
02-Oct-22 10:12 35.765909 -115.529485 28 15488ft 316kts
02-Oct-22 10:13 35.842060 -115.476196 29 14264ft 313kts
02-Oct-22 10:14 35.916940 -115.423412 29 13023ft 308kts
02-Oct-22 10:15 35.990438 -115.371049 39 11789ft 303kts
02-Oct-22 10:16 36.012049 -115.277437 96 10606ft 292kts
02-Oct-22 10:17 36.006394 -115.178372 96 9451ft 285kts
02-Oct-22 10:18 36.001183 -115.087824 96 8761ft 254kts
02-Oct-22 10:19 35.998997 -115.003072 91 7640ft 239kts
02-Oct-22 10:20 36.001311 -114.921440 74 6138ft 239kts
02-Oct-22 10:21 36.053617 -114.904145 320 5057ft 217kts
02-Oct-22 10:22 36.073616 -114.964408 267 4509ft 194kts
02-Oct-22 10:23 36.073657 -115.024669 267 3659ft 154kts
02-Oct-22 10:24 36.073662 -115.076640 267 2942ft 147kts
02-Oct-22 10:25 36.073699 -115.126794 266 2090ft 145kts
02-Oct-22 10:26 36.074005 -115.144230 291 2119ft 12kts
02-Oct-22 10:27 36.076777 -115.146548 359 2131ft 15kts
02-Oct-22 10:29 36.077668 -115.146105 71 2130ft 1kts
02-Oct-22 10:30 36.078279 -115.143653 94 2116ft 15kts
02-Oct-22 10:31 36.080797 -115.141025 72 2099ft 0kts

Navigation Log

Ident Type
Flight plan parsing failed, navigation log unavailable